createdAt,value
2023-04-27T00:00:00.000Z,12.88
2023-04-27T00:15:00.000Z,13.14
2023-04-27T00:30:00.000Z,16.59
2023-04-27T00:45:00.000Z,13.79
2023-04-27T01:00:00.000Z,13.46
2023-04-27T01:15:00.000Z,14.86
2023-04-27T01:30:00.000Z,15.35
2023-04-27T01:45:00.000Z,20.27
2023-04-27T02:00:00.000Z,18.29
2023-04-27T02:15:00.000Z,20.08
2023-04-27T02:30:00.000Z,14.81
2023-04-27T02:45:00.000Z,17.59
2023-04-27T03:00:00.000Z,15.82
2023-04-27T03:15:00.000Z,15.74
2023-04-27T03:30:00.000Z,17.89
2023-04-27T03:45:00.000Z,14.99
2023-04-27T04:00:00.000Z,18.21
2023-04-27T04:15:00.000Z,19.18
2023-04-27T04:30:00.000Z,16.4
2023-04-27T04:45:00.000Z,15.79
2023-04-27T05:00:00.000Z,21.35
2023-04-27T05:15:00.000Z,26.72
2023-04-27T05:30:00.000Z,18.89
2023-04-27T05:45:00.000Z,13.31
2023-04-27T06:00:00.000Z,13.52
2023-04-27T06:15:00.000Z,14.49
2023-04-27T06:30:00.000Z,13.98
2023-04-27T06:45:00.000Z,18.54
2023-04-27T07:00:00.000Z,17.22
2023-04-27T07:15:00.000Z,14.92
2023-04-27T07:30:00.000Z,13.67
2023-04-27T07:45:00.000Z,17.91
2023-04-27T08:00:00.000Z,18.09
2023-04-27T08:15:00.000Z,16.56
2023-04-27T08:30:00.000Z,18.67
2023-04-27T08:45:00.000Z,15.25
2023-04-27T09:00:00.000Z,13.44
2023-04-27T09:15:00.000Z,13.13
2023-04-27T09:30:00.000Z,11.01
2023-04-27T09:45:00.000Z,10.51
2023-04-27T10:00:00.000Z,10.62
2023-04-27T10:15:00.000Z,12.6
2023-04-27T10:30:00.000Z,10.21
2023-04-27T10:45:00.000Z,10.24
2023-04-27T11:00:00.000Z,9.99
2023-04-27T11:15:00.000Z,10.02
2023-04-27T11:30:00.000Z,10.08
2023-04-27T11:45:00.000Z,12.33
2023-04-27T12:00:00.000Z,9.93
2023-04-27T12:15:00.000Z,9.39
2023-04-27T12:30:00.000Z,9.33
2023-04-27T12:45:00.000Z,8.42
2023-04-27T13:00:00.000Z,7.65
2023-04-27T13:15:00.000Z,6.76
2023-04-27T13:30:00.000Z,12.13
2023-04-27T13:45:00.000Z,7.09
2023-04-27T14:00:00.000Z,6.95
2023-04-27T14:15:00.000Z,6.99
2023-04-27T14:30:00.000Z,6.54
2023-04-27T14:45:00.000Z,7.08
2023-04-27T15:00:00.000Z,16.88
2023-04-27T15:15:00.000Z,19.79
2023-04-27T15:30:00.000Z,14.15
2023-04-27T15:45:00.000Z,11.13
2023-04-27T16:00:00.000Z,10.99
2023-04-27T16:15:00.000Z,5.79
2023-04-27T16:30:00.000Z,10.04
2023-04-27T16:45:00.000Z,9.54
2023-04-27T17:00:00.000Z,5.25
2023-04-27T17:15:00.000Z,6.6
2023-04-27T17:30:00.000Z,6.68
2023-04-27T17:45:00.000Z,6.87
2023-04-27T18:00:00.000Z,8.91
2023-04-27T18:15:00.000Z,12.32
2023-04-27T18:30:00.000Z,13.46
2023-04-27T18:45:00.000Z,13.38
2023-04-27T19:00:00.000Z,11.68
2023-04-27T19:15:00.000Z,10.47
2023-04-27T19:30:00.000Z,10.95
2023-04-27T19:45:00.000Z,11.65
2023-04-27T20:00:00.000Z,14.32
2023-04-27T20:15:00.000Z,12.94
2023-04-27T20:30:00.000Z,15.04
2023-04-27T20:45:00.000Z,15.36
2023-04-27T21:00:00.000Z,16.09
2023-04-27T21:15:00.000Z,15.72
2023-04-27T21:30:00.000Z,14.62
2023-04-27T21:45:00.000Z,13.79
2023-04-27T22:00:00.000Z,14.42
2023-04-27T22:15:00.000Z,13.59
2023-04-27T22:30:00.000Z,13.47
2023-04-27T22:45:00.000Z,14.06
2023-04-27T23:00:00.000Z,13.95
2023-04-27T23:15:00.000Z,15.24
2023-04-27T23:30:00.000Z,14.18
2023-04-27T23:45:00.000Z,13.45
